Flight Track Log - Related Links

Times and Time Zones

All times are in EDT time to prevent confusion due to time zone crossing. See the ASQ5084 flight status page for this flight to view local times or setup timezone preferences in your user account.

Time Position Orientation Groundspeed Altitude Reporting Facility
EDT Latitude Longitude Course Direction KTS MPH feet Rate Location/Type
Thu 11:51:17 AM 36.2847 -95.8803 North 226 260 3,500  Level Kansas City Center
Thu 11:52:04 AM 36.3042 -95.8194 68° East 259 298 4,700 1,266 Climbing Kansas City Center
Thu 11:53:06 AM 36.2989 -95.7239 94° East 272 313 5,800 2,000 Climbing Kansas City Center
Thu 11:54:19 AM 36.2919 -95.5994 94° East 284 327 9,200 2,129 Climbing Kansas City Center
Thu 11:55:10 AM 36.2661 -95.5347 116° Southeast 294 338 10,200 1,381 Climbing Kansas City Center
Thu 11:56:12 AM 36.2206 -95.4353 120° Southeast 326 375 11,800 1,645 Climbing Kansas City Center
Thu 11:57:14 AM 36.1733 -95.3003 113° Southeast 363 418 13,600 1,597 Climbing Kansas City Center
Thu 11:58:16 AM 36.1481 -95.1722 104° East 381 438 15,100 1,452 Climbing Kansas City Center
Thu 11:59:18 AM 36.1233 -95.0400 103° East 394 453 16,600 1,403 Climbing Kansas City Center
Thu 12:00:20 PM 36.0967 -94.9061 104° East 400 460 18,000 1,418 Climbing Kansas City Center
Thu 12:01:08 PM 36.0733 -94.7944 104° East 400 460 19,200 1,333 Climbing Memphis Center
Thu 12:02:08 PM 36.0469 -94.6569 103° East 400 460 20,400 1,100 Climbing Memphis Center
Thu 12:03:08 PM 36.0186 -94.5142 104° East 405 466 21,400 1,000 Climbing Memphis Center
Thu 12:04:08 PM 35.9878 -94.3692 105° East 424 488 22,400 1,000 Climbing Memphis Center
Thu 12:05:08 PM 35.9592 -94.2217 103° East 435 501 23,400 1,000 Climbing Memphis Center
Thu 12:06:08 PM 35.9303 -94.0717 103° East 440 506 24,400 1,000 Climbing Memphis Center
Thu 12:07:08 PM 35.8953 -93.9189 106° East 446 513 25,400 1,000 Climbing Memphis Center
Thu 12:08:08 PM 35.8639 -93.7664 104° East 451 519 26,400 1,000 Climbing Memphis Center
Thu 12:09:08 PM 35.8325 -93.6139 104° East 456 525 27,400 1,000 Climbing Memphis Center
Thu 12:10:08 PM 35.8031 -93.4617 103° East 456 525 28,400 950 Climbing Memphis Center
Thu 12:11:08 PM 35.7711 -93.3147 105° East 456 525 29,300 850 Climbing Memphis Center
Thu 12:12:08 PM 35.7394 -93.1600 104° East 456 525 30,100 800 Climbing Memphis Center
Thu 12:13:08 PM 35.7072 -93.0083 105° East 456 525 30,900 600 Climbing Memphis Center
Thu 12:14:08 PM 35.6728 -92.8511 105° East 461 531 31,300 550 Climbing Memphis Center
Thu 12:15:08 PM 35.6383 -92.6919 105° East 480 552 32,000 650 Climbing Memphis Center
Thu 12:16:08 PM 35.6039 -92.5350 105° East 480 552 32,600 600 Climbing Memphis Center
Thu 12:17:08 PM 35.5669 -92.3758 106° East 480 552 33,200 600 Climbing Memphis Center
Thu 12:18:08 PM 35.5339 -92.2119 104° East 480 552 33,800 600 Climbing Memphis Center
Thu 12:19:08 PM 35.4947 -92.0350 105° East 480 552 34,400 600 Climbing Memphis Center
Thu 12:20:08 PM 35.4592 -91.8736 105° East 480 552 35,000 300 Climbing Memphis Center
Thu 12:21:08 PM 35.4214 -91.7100 106° East 485 558 35,000  Level Memphis Center
Thu 12:22:08 PM 35.3814 -91.5411 106° East 497 572 35,000  Level Memphis Center
Thu 12:23:08 PM 35.3414 -91.3675 106° East 509 586 35,000  Level Memphis Center
Thu 12:24:08 PM 35.3050 -91.1942 104° East 520 598 35,000  Level Memphis Center
Thu 12:25:08 PM 35.2664 -91.0386 107° East 520 598 35,000  Level Memphis Center
Thu 12:26:08 PM 35.2253 -90.8628 106° East 528 608 35,000  Level Memphis Center
Thu 12:27:08 PM 35.1842 -90.6747 105° East 528 608 35,000  Level Memphis Center
Thu 12:28:08 PM 35.1408 -90.5044 107° East 528 608 35,000  Level Memphis Center
Thu 12:29:08 PM 35.1011 -90.3317 106° East 523 602 35,000  Level Memphis Center
Thu 12:30:08 PM 35.0594 -90.1642 107° East 517 595 35,000  Level Memphis Center
Thu 12:31:08 PM 35.0214 -89.9919 105° East 517 595 35,000  Level Memphis Center
Thu 12:33:08 PM 34.9739 -89.6525 100° East 531 611 35,000  Level Memphis Center
Thu 12:34:08 PM 34.9436 -89.4831 102° East 532 612 35,000  Level Memphis Center
Thu 12:35:08 PM 34.9175 -89.3161 101° East 513 590 35,000  Level Memphis Center
Thu 12:36:08 PM 34.8886 -89.1342 101° East 503 579 35,000 -400 Level Memphis Center
Thu 12:37:08 PM 34.8619 -88.9703 101° East 503 579 34,200 -900 Descending Memphis Center
Thu 12:38:08 PM 34.8347 -88.7936 101° East 513 590 33,200 -600 Descending Memphis Center
Thu 12:39:08 PM 34.8117 -88.6219 99° East 513 590 33,000 -100 Descending Memphis Center
Thu 12:40:08 PM 34.7864 -88.4783 102° East 504 580 33,000  Level Memphis Center
Thu 12:41:08 PM 34.7608 -88.3119 101° East 494 568 33,000  Level Memphis Center
Thu 12:42:08 PM 34.7283 -88.1183 101° East 514 592 33,000  Level Memphis Center
Thu 12:43:08 PM 34.7044 -87.9522 100° East 523 602 33,000  Level Memphis Center
Thu 12:44:08 PM 34.6739 -87.7789 102° East 518 596 33,000  Level Memphis Center
Thu 12:45:08 PM 34.6497 -87.6256 101° East 518 596 33,000  Level Memphis Center
Thu 12:48:06 PM 34.5558 -87.0931 102° East 522 601 33,000 -50 Level Atlanta Center
Thu 12:49:06 PM 34.5203 -86.9178 104° East 527 606 32,800 -650 Descending Atlanta Center
Thu 12:50:06 PM 34.4867 -86.7478 103° East 532 612 31,700 -1,200 Descending Atlanta Center
Thu 12:51:06 PM 34.4547 -86.5781 103° East 525 604 30,400 -1,450 Descending Atlanta Center
Thu 12:52:06 PM 34.4206 -86.4058 103° East 520 598 28,800 -1,350 Descending Atlanta Center
Thu 12:53:06 PM 34.3883 -86.2339 103° East 520 598 27,700 -1,050 Descending Atlanta Center
Thu 12:54:06 PM 34.3536 -86.0642 104° East 520 598 26,700 -1,450 Descending Atlanta Center
Thu 12:55:06 PM 34.3208 -85.8950 103° East 514 592 24,800 -1,900 Descending Atlanta Center
Thu 12:56:06 PM 34.2917 -85.7433 103° East 514 592 22,900 -2,000 Descending Atlanta Center
Thu 12:57:06 PM 34.2564 -85.5769 104° East 514 592 20,800 -2,000 Descending Atlanta Center
Thu 12:58:06 PM 34.2269 -85.4256 103° East 481 554 18,900 -1,850 Descending Atlanta Center
Thu 12:59:06 PM 34.1931 -85.2669 104° East 457 526 17,100 -1,850 Descending Atlanta Center
Thu 01:00:06 PM 34.1611 -85.1233 105° East 443 510 15,200 -1,550 Descending Atlanta Center
Thu 01:01:06 PM 34.0825 -85.0194 132° Southeast 404 465 14,000 -1,150 Descending Atlanta Center
Thu 01:02:06 PM 34.0019 -84.9133 132° Southeast 422 486 12,900 -1,000 Descending Atlanta Center
Thu 01:03:06 PM 33.9233 -84.8150 134° Southeast 421 484 12,000 -450 Descending Atlanta Center
Thu 01:04:06 PM 33.8425 -84.7142 134° Southeast 414 476 12,000 -417 Level Atlanta Center
Thu 01:05:01 PM 33.7833 -84.6167 126° Southeast 370 426 11,200 -744 Descending Atlanta TRACON
Thu 01:06:07 PM 33.7333 -84.5167 121° Southeast 309 356 10,500 -1,476 Descending Atlanta TRACON
Thu 01:07:07 PM 33.7333 -84.4333 90° East 299 344 8,100 -2,350 Descending Atlanta TRACON
Thu 01:08:07 PM 33.7333 -84.3333 90° East 276 318 5,800 -2,050 Descending Atlanta TRACON
Thu 01:09:07 PM 33.7167 -84.2500 103° East 264 304 4,000 -950 Descending Atlanta TRACON
Thu 01:10:07 PM 33.6833 -84.2500 180° South 204 235 3,900 -700 Descending Atlanta TRACON
Thu 01:11:07 PM 33.6500 -84.3167 239° Southwest 191 220 2,600 -1,095 Descending Atlanta TRACON
Thu 01:12:13 PM 33.6500 -84.3667 270° West 154 177 1,600 -909 Descending Atlanta TRACON
Thu 01:14:00 PM 33.6333 -84.4167 North  Level FlightAware Approximate
Thu 01:21:00 PM 33.6367 -84.4279 North  Level Estimated
Thu 01:22:00 PM 33.6367 -84.4279 North  Level Estimated

Login

Don't have an account? Register now (free) for customized features, flight alerts, and more!